Fene, Spain
Current Conditions -  °F | °C
As of 3:03 PM on Thursday 29 Jan 2015 (Local Time) from LECO Reporting Station
Moderate Rain Moderate Rain  
Wind Chill: 57°   Ceiling: 1200
Heat Index: 57°   Visibility: 1.8mi
Dew Point: 54°   Wind: 20mph
Humidity: 88%   Direction: 270°W
Pressure: 29.88"   Gusts: NA
Location:  43.45°N, 8.15°W
Report Text: LECO 291403Z 27017KT 240V320 3000 RADZ FEW008 BKN012 OVC01814/12 Q1012 TEMPO 1500
Loading
Personal Weather Stations






























Interactive Weather Map New forecast layout! Learn more

10-Day Weather Forecast

Advertisements
Track Severe Weather on mobile